EGHE/ISC METAR and TAF weather

Enter ICAO airport designator
Station Type Date Time Source
EGHE METAR 2021/03/02 16:20 UTC NOAA

EGHE 021620Z 10021KT 3000 HZ SCT008 09/08 Q1024


Station Type Date Time Source
EGHE Decoded METAR 2021/03/02 16:20 UTC NOAA

Scilly, Saint Mary'S, United Kingdom (EGHE) 49-55N 006-18W 0M
Mar 02, 2021 - 11:20 AM EST / 2021.03.02 1620 UTC
Wind: from the E (100 degrees) at 24 MPH (21 KT):0
Visibility: 1 mile(s):0
Sky conditions: partly cloudy
Weather: haze
Temperature: 48 F (9 C)
Dew Point: 46 F (8 C)
Relative Humidity: 93%
Pressure (altimeter): 30.24 in. Hg (1024 hPa)
ob: EGHE 021620Z 10021KT 3000 HZ SCT008 09/08 Q1024
cycle: 16

Station Type Date Time Source
EGHE TAF UTC NOAA

Error!

Example: see airport list